Jacumba, CA (91934)

6:08 PM PDT on October 20, 2014 (GMT -0700)
J-town | Change Station
CLOSE
Current Station
Personal Weather Station
Location: Jacumba, CA
Elevation: 2799 ft
Nearby Weather Stations

Elev 2799 ft 32.62 °N, 116.19 °W | Updated 7 minutes ago

Clear
Clear
75.4 °F
Feels Like 78 °F
N
3.1
Wind Variable Wind from SW
Gusts 5.4 mph

Today
High -- | Low -- °F
--% Chance of Precip.
Yesterday
High -- | Low -- °F
Precip. -- in
6:52 AM 6:05 PM
Waning Crescent, 8% visible
Pressure 29.82 in
Visibility -9999.0 miles
Clouds
Heat Index 78 °F
Dew Point 55 °F
Humidity 49%
Rainfall 0.00 in
Snow Depth Not available.
UV 0.0 out of 12
Pollen 3.60 out of 12
Air Quality Not available.
Flu Activity Sporadic
METAR KCZZ 210052Z AUTO 22010KT 21/14 A2989 RMK AO1 SLP098 T02060144

More Conditions Fewer Conditions

Pressure 29.82 in
Visibility -9999.0 miles
Clouds
Heat Index 78 °F
Dew Point 55 °F
Humidity 49%
Rainfall 0.00 in
Snow Depth Not available.
UV 0.0 out of 12
Pollen 3.60 out of 12
Air Quality Not available.
Flu Activity Sporadic
METAR KCZZ 210052Z AUTO 22010KT 21/14 A2989 RMK AO1 SLP098 T02060144

More Conditions Fewer Conditions

10-Day Weather Forecast

Almanac

Astronomy

Oct. 20, 2014 Rise Set
Actual Time 6:52 AM PDT 6:05 PM PDT
Civil Twilight 6:27 AM PDT 6:30 PM PDT
Nautical Twilight 5:58 AM PDT 6:59 PM PDT
Astronomical Twilight 5:30 AM PDT 7:28 PM PDT
Moon 3:54 AM PDT (10/20) 4:22 PM PDT (10/20)
Length of Visible Light 12h 03m
Length of Day
11h 13m
Tomorrow will be 1m 53s shorter.
Waning Crescent, 8% of the Moon is Illuminated
Today
Waning Crescent
Oct 23
New
Oct 30
First Quarter
Nov 6
Full
Nov 14
Last Quarter

Today's Extremes

State Highs State Lows

Community

WunderPhotos

Upload Photos

1,763,576 photos uploaded!

Nearby

Snow Depth

Station Depth Elevation
Leavitt Lake 0 in 9400 ft
Leavitt Meadows 0 in 7200 ft
Summit Meadow 0 in 9122 ft
Forestdale Creek 0 in 8029 ft
Burnside Lake 0 in 8139 ft

Earthquake Activity

City Distance Mag. Time & Date
No recent earthquake activity has been reported nearby.
Minimum magnitude displayed is 2.5.

Coastal Water Temperatures

Place Temperature
No Stations Reporting

Nearby Weather Stations